Time;durP1;ratioP1;P1;durP2;ratioP2;P2;SDS_P1;SDS_P2;PMS_P1;PMS_P2;Temp;Humidity;BMP_temperature;BMP_pressure;BME280_temperature;BME280_humidity;BME280_pressure;Samples;Min_cycle;Max_cycle;Signal;HPM_P1;HPM_P2
2023/06/15 00:01:14;;;;;;;5.75;1.90;;;17.30;99.90;;;;;;4987251;28;20046;-70
2023/06/15 00:03:42;;;;;;;5.82;2.70;;;17.20;99.90;;;;;;4977572;28;20536;-71
2023/06/15 00:06:08;;;;;;;5.05;2.42;;;17.20;99.90;;;;;;4982516;28;20443;-71
2023/06/15 00:08:34;;;;;;;6.88;2.40;;;17.10;99.90;;;;;;5007980;28;20037;-71
2023/06/15 00:11:00;;;;;;;;;;;17.10;99.90;;;;;;5011143;28;20049;-71
2023/06/15 00:13:25;;;;;;;3.60;1.92;;;17.10;99.90;;;;;;4996469;28;20294;-71
2023/06/15 00:15:51;;;;;;;7.93;2.50;;;17.00;99.90;;;;;;4991884;28;20112;-71
2023/06/15 00:18:17;;;;;;;9.18;2.72;;;17.00;99.90;;;;;;4994679;28;20042;-71
2023/06/15 00:20:44;;;;;;;7.03;2.20;;;17.00;99.90;;;;;;4992985;28;20069;-70
2023/06/15 00:23:10;;;;;;;3.53;2.00;;;16.90;99.90;;;;;;5012727;28;20522;-70
2023/06/15 00:25:36;;;;;;;7.43;2.35;;;16.90;99.90;;;;;;4992376;28;20451;-71
2023/06/15 00:28:02;;;;;;;4.07;2.22;;;16.90;99.90;;;;;;5010822;28;20076;-71
2023/06/15 00:30:28;;;;;;;4.22;2.50;;;16.90;99.90;;;;;;5015057;28;20241;-71
2023/06/15 00:32:53;;;;;;;5.97;2.53;;;16.90;99.90;;;;;;4996426;28;20041;-71
2023/06/15 00:35:19;;;;;;;4.47;2.20;;;16.90;99.90;;;;;;4989678;28;20466;-70
2023/06/15 00:37:45;;;;;;;5.70;2.83;;;16.90;99.90;;;;;;5009205;28;20042;-71
2023/06/15 00:40:11;;;;;;;10.45;2.58;;;16.80;99.90;;;;;;5007364;28;20037;-71
2023/06/15 00:42:37;;;;;;;7.88;2.60;;;16.80;99.90;;;;;;4992270;28;20037;-74
2023/06/15 00:45:05;;;;;;;5.88;2.55;;;16.80;99.90;;;;;;4991764;28;20046;-70
2023/06/15 00:47:33;;;;;;;5.53;2.40;;;16.70;99.90;;;;;;4996173;28;20408;-70
2023/06/15 00:49:59;;;;;;;5.40;2.60;;;16.70;99.90;;;;;;4993855;28;20093;-70
2023/06/15 00:52:25;;;;;;;4.25;1.92;;;16.70;99.90;;;;;;4973666;28;20077;-70
2023/06/15 00:54:51;;;;;;;5.63;2.70;;;16.70;99.90;;;;;;4990750;28;20042;-70
2023/06/15 00:57:18;;;;;;;;;;;16.60;99.90;;;;;;5010493;28;20552;-70
2023/06/15 00:59:44;;;;;;;4.45;1.98;;;16.60;99.90;;;;;;4989249;28;19928;-70
2023/06/15 01:02:12;;;;;;;3.70;1.88;;;16.60;99.90;;;;;;4987877;28;20037;-70
2023/06/15 01:04:39;;;;;;;5.50;2.42;;;16.60;99.90;;;;;;5010888;28;20054;-70
2023/06/15 01:07:10;;;;;;;5.20;2.50;;;16.60;99.90;;;;;;4995638;28;20072;-70
2023/06/15 01:09:39;;;;;;;6.25;2.47;;;16.60;99.90;;;;;;4979800;28;20596;-70
2023/06/15 01:12:07;;;;;;;11.73;3.17;;;16.60;99.90;;;;;;4975323;28;20049;-71
2023/06/15 01:14:34;;;;;;;4.70;2.28;;;16.60;99.90;;;;;;5014865;28;20099;-71
2023/06/15 01:17:05;;;;;;;4.68;2.25;;;16.60;99.90;;;;;;5010250;28;20045;-70
2023/06/15 01:19:57;;;;;;;6.43;2.67;;;16.60;99.90;;;;;;5001764;28;20507;-71
2023/06/15 01:22:29;;;;;;;6.35;2.40;;;16.50;99.90;;;;;;4996972;28;20087;-71
2023/06/15 01:25:26;;;;;;;4.30;2.45;;;16.50;99.90;;;;;;5008966;28;20045;-71
2023/06/15 01:27:59;;;;;;;8.80;2.47;;;16.50;99.90;;;;;;5011914;28;20065;-70
2023/06/15 01:30:27;;;;;;;5.68;2.55;;;16.50;99.90;;;;;;4986391;28;20050;-70
2023/06/15 01:32:55;;;;;;;3.85;2.30;;;16.50;99.90;;;;;;5016148;28;20037;-70
2023/06/15 01:35:21;;;;;;;4.88;2.45;;;16.50;99.90;;;;;;5015426;28;20444;-70
2023/06/15 01:37:47;;;;;;;7.53;2.70;;;16.40;99.90;;;;;;4994932;28;20089;-70
2023/06/15 01:40:13;;;;;;;4.57;3.05;;;16.40;99.90;;;;;;4991057;28;20054;-70
2023/06/15 01:42:40;;;;;;;6.47;2.78;;;16.40;99.90;;;;;;5008442;28;20041;-70
2023/06/15 01:45:07;;;;;;;3.85;2.75;;;16.40;99.90;;;;;;4993426;28;20564;-70
2023/06/15 01:47:33;;;;;;;5.28;2.47;;;16.40;99.90;;;;;;5009828;28;20113;-71
2023/06/15 01:50:00;;;;;;;4.53;2.45;;;16.40;99.90;;;;;;4997453;28;20117;-70
2023/06/15 01:52:26;;;;;;;7.68;2.83;;;16.40;99.90;;;;;;5005315;28;20045;-70
2023/06/15 01:54:51;;;;;;;5.57;2.63;;;16.30;99.90;;;;;;4998343;28;20115;-70
2023/06/15 01:57:20;;;;;;;4.75;2.45;;;16.30;99.90;;;;;;4982828;28;20049;-70
2023/06/15 01:59:46;;;;;;;4.18;2.20;;;16.30;99.90;;;;;;5005854;28;20088;-70
2023/06/15 02:02:12;;;;;;;7.55;2.80;;;16.30;99.90;;;;;;5008153;28;20041;-71
2023/06/15 02:04:37;;;;;;;4.72;2.72;;;16.20;99.90;;;;;;5003193;28;20080;-70
2023/06/15 02:07:03;;;;;;;5.60;2.90;;;16.20;99.90;;;;;;5002264;28;20503;-70
2023/06/15 02:09:29;;;;;;;7.25;2.67;;;16.20;99.90;;;;;;5012053;28;20042;-71
2023/06/15 02:11:56;;;;;;;7.85;2.97;;;16.10;99.90;;;;;;5015514;28;20045;-70
2023/06/15 02:14:25;;;;;;;3.60;2.65;;;16.10;99.90;;;;;;4991195;28;20065;-71
2023/06/15 02:16:50;;;;;;;8.52;2.70;;;16.00;99.90;;;;;;5013537;28;20031;-70
2023/06/15 02:19:21;;;;;;;7.45;2.85;;;16.00;99.90;;;;;;4997658;28;20049;-71
2023/06/15 02:21:48;;;;;;;6.93;3.08;;;16.00;99.90;;;;;;4988896;28;20042;-71
2023/06/15 02:24:15;;;;;;;7.55;2.78;;;16.00;99.90;;;;;;4994125;28;20056;-70
2023/06/15 02:26:41;;;;;;;4.88;2.70;;;16.00;99.90;;;;;;5008570;28;20049;-71
2023/06/15 02:29:06;;;;;;;6.00;2.75;;;15.90;99.90;;;;;;4999226;28;20049;-71
2023/06/15 02:31:36;;;;;;;5.28;2.90;;;15.90;99.90;;;;;;4988228;28;20115;-70
2023/06/15 02:34:01;;;;;;;8.10;3.13;;;15.90;99.90;;;;;;5012012;28;20415;-70
2023/06/15 02:36:28;;;;;;;6.50;3.20;;;15.80;99.90;;;;;;4988297;28;20121;-70
2023/06/15 02:38:54;;;;;;;6.40;3.00;;;15.80;99.90;;;;;;4995857;28;20046;-70
2023/06/15 02:41:20;;;;;;;10.45;2.90;;;15.80;99.90;;;;;;4990736;28;20488;-71
2023/06/15 02:43:45;;;;;;;4.88;2.85;;;15.80;99.90;;;;;;5010919;28;20037;-70
2023/06/15 02:46:11;;;;;;;4.15;2.45;;;15.70;99.90;;;;;;4993858;28;20041;-70
2023/06/15 02:48:37;;;;;;;5.53;2.97;;;15.70;99.90;;;;;;5008032;28;20120;-70
2023/06/15 02:51:03;;;;;;;6.40;3.00;;;15.70;99.90;;;;;;5009552;28;20559;-70
2023/06/15 02:53:29;;;;;;;6.18;2.92;;;15.70;99.90;;;;;;5012982;28;20069;-71
2023/06/15 02:55:56;;;;;;;5.00;2.35;;;15.60;99.90;;;;;;5012743;28;20073;-70
2023/06/15 02:58:24;;;;;;;6.47;3.08;;;15.70;99.90;;;;;;5000717;28;20091;-71
2023/06/15 03:00:51;;;;;;;6.13;3.00;;;15.60;99.90;;;;;;4972006;28;20055;-70
2023/06/15 03:03:22;;;;;;;6.70;3.40;;;15.60;99.90;;;;;;4981463;28;20503;-71
2023/06/15 03:05:48;;;;;;;8.50;2.95;;;15.60;99.90;;;;;;4991789;28;20053;-70
2023/06/15 03:08:15;;;;;;;4.93;3.00;;;15.60;99.90;;;;;;4975003;28;20050;-71
2023/06/15 03:10:41;;;;;;;4.75;2.78;;;15.50;99.90;;;;;;4993335;28;20048;-71
2023/06/15 03:13:06;;;;;;;5.53;2.72;;;15.50;99.90;;;;;;4974005;28;20037;-70
2023/06/15 03:15:32;;;;;;;7.65;3.17;;;15.50;99.90;;;;;;5009255;28;20054;-70
2023/06/15 03:17:58;;;;;;;4.47;2.55;;;15.50;99.90;;;;;;4995784;28;20488;-71
2023/06/15 03:20:24;;;;;;;5.70;2.88;;;15.40;99.90;;;;;;4999720;28;20046;-71
2023/06/15 03:22:50;;;;;;;6.93;3.40;;;15.40;99.90;;;;;;5011194;28;20403;-70
2023/06/15 03:25:16;;;;;;;5.15;3.17;;;15.40;99.90;;;;;;4984532;28;20053;-70
2023/06/15 03:27:42;;;;;;;11.75;4.43;;;15.40;99.90;;;;;;4974838;28;20049;-71
2023/06/15 03:30:11;;;;;;;6.25;2.95;;;15.40;99.90;;;;;;4991371;28;20038;-71
2023/06/15 03:32:37;;;;;;;5.63;2.83;;;15.40;99.90;;;;;;4992400;28;20045;-70
2023/06/15 03:35:03;;;;;;;;;;;15.40;99.90;;;;;;5005599;28;20050;-70
2023/06/15 03:37:29;;;;;;;10.13;3.28;;;15.40;99.90;;;;;;4977697;28;19917;-70
2023/06/15 03:39:54;;;;;;;4.50;2.78;;;15.40;99.90;;;;;;4989766;28;20034;-70
2023/06/15 03:42:22;;;;;;;10.43;3.20;;;15.40;99.90;;;;;;4986876;28;20476;-70
2023/06/15 03:44:48;;;;;;;8.40;3.22;;;15.40;99.90;;;;;;4991629;28;20037;-71
2023/06/15 03:47:13;;;;;;;5.00;2.65;;;15.50;99.90;;;;;;4974760;28;20046;-70
2023/06/15 03:49:39;;;;;;;6.80;3.35;;;15.50;99.90;;;;;;5013413;28;20048;-70
2023/06/15 03:52:05;;;;;;;5.78;3.20;;;15.50;99.90;;;;;;4982461;28;20038;-70
2023/06/15 03:54:32;;;;;;;7.18;3.10;;;15.50;99.90;;;;;;5011483;28;20466;-70
2023/06/15 03:56:58;;;;;;;8.23;3.53;;;15.50;99.90;;;;;;4991576;28;20118;-70
2023/06/15 03:59:23;;;;;;;4.75;3.17;;;15.50;99.90;;;;;;4998163;28;20121;-70
2023/06/15 04:01:49;;;;;;;7.03;3.72;;;15.50;99.90;;;;;;4997968;28;20038;-71
2023/06/15 04:04:15;;;;;;;7.45;2.95;;;15.60;99.90;;;;;;4990814;28;20448;-70
2023/06/15 04:06:46;;;;;;;7.35;3.85;;;15.50;99.90;;;;;;4992827;28;20045;-70
2023/06/15 04:09:13;;;;;;;6.93;3.20;;;15.60;99.90;;;;;;5009789;28;20310;-70
2023/06/15 04:11:40;;;;;;;8.07;3.08;;;15.60;99.90;;;;;;4998343;28;20455;-70
2023/06/15 04:14:05;;;;;;;;;;;15.60;99.90;;;;;;5009789;28;20488;-70
2023/06/15 04:16:31;;;;;;;6.68;3.30;;;15.70;99.90;;;;;;4996963;28;19925;-70
2023/06/15 04:18:57;;;;;;;6.47;3.35;;;15.70;99.90;;;;;;4994165;28;20040;-70
2023/06/15 04:21:22;;;;;;;6.93;3.28;;;15.70;99.90;;;;;;5000815;28;20077;-71
2023/06/15 04:23:50;;;;;;;9.00;3.40;;;15.70;99.90;;;;;;4992888;28;20125;-71
2023/06/15 04:26:17;;;;;;;6.10;3.03;;;15.80;99.90;;;;;;4990674;28;20089;-71
2023/06/15 04:28:45;;;;;;;6.20;3.30;;;15.80;99.90;;;;;;4993521;28;20041;-70
2023/06/15 04:31:17;;;;;;;7.15;3.20;;;15.90;99.90;;;;;;4993872;28;20427;-70
2023/06/15 04:33:43;;;;;;;4.82;3.33;;;15.90;99.90;;;;;;5011901;28;20084;-70
2023/06/15 04:36:13;;;;;;;4.97;3.05;;;15.90;99.90;;;;;;4996601;28;20080;-70
2023/06/15 04:38:40;;;;;;;7.72;3.35;;;15.90;99.90;;;;;;4995684;28;20671;-70
2023/06/15 04:41:07;;;;;;;7.13;4.05;;;16.00;99.90;;;;;;5010066;28;20026;-70
2023/06/15 04:43:35;;;;;;;7.28;3.50;;;16.00;99.90;;;;;;4993666;28;20125;-70
2023/06/15 04:46:01;;;;;;;8.25;3.15;;;16.10;99.90;;;;;;4990568;28;20116;-70
2023/06/15 04:48:27;;;;;;;5.63;3.40;;;16.10;99.90;;;;;;4993777;28;20116;-70
2023/06/15 04:50:53;;;;;;;;;;;16.10;99.90;;;;;;4988448;28;20058;-70
2023/06/15 04:53:19;;;;;;;11.50;3.13;;;16.20;99.90;;;;;;5001681;28;20367;-70
2023/06/15 04:55:48;;;;;;;6.72;2.97;;;16.30;99.90;;;;;;4994479;28;20060;-70
2023/06/15 04:58:14;;;;;;;11.88;3.75;;;16.30;99.90;;;;;;5011818;28;20046;-70
2023/06/15 05:00:41;;;;;;;6.50;3.10;;;16.40;99.90;;;;;;4993342;28;20044;-70
2023/06/15 05:03:07;;;;;;;7.50;3.85;;;16.40;99.90;;;;;;4997414;28;20033;-70
2023/06/15 05:05:33;;;;;;;7.03;3.33;;;16.50;99.90;;;;;;4994057;28;20042;-70
2023/06/15 05:07:58;;;;;;;5.95;3.40;;;16.50;99.90;;;;;;5009978;28;20124;-70
2023/06/15 05:10:26;;;;;;;6.72;3.75;;;16.60;99.90;;;;;;4998692;28;20033;-70
2023/06/15 05:12:52;;;;;;;4.82;2.80;;;16.60;99.90;;;;;;4995503;28;20136;-70
2023/06/15 05:15:18;;;;;;;9.45;3.53;;;16.60;99.90;;;;;;4992276;28;20125;-70
2023/06/15 05:17:44;;;;;;;4.00;3.00;;;16.70;99.90;;;;;;4979340;28;20042;-70
2023/06/15 05:20:10;;;;;;;7.32;2.95;;;16.70;99.90;;;;;;4995912;28;20033;-70
2023/06/15 05:22:35;;;;;;;;;;;16.80;99.90;;;;;;4994562;28;20042;-70
2023/06/15 05:25:02;;;;;;;5.45;3.75;;;16.80;99.90;;;;;;5005690;28;19924;-70
2023/06/15 05:27:28;;;;;;;9.32;3.63;;;16.80;99.90;;;;;;4991943;28;20441;-70
2023/06/15 05:29:54;;;;;;;11.15;2.65;;;16.90;99.90;;;;;;4990589;28;20129;-70
2023/06/15 05:32:20;;;;;;;5.97;2.75;;;16.90;99.90;;;;;;4991801;28;20046;-70
2023/06/15 05:34:46;;;;;;;8.68;3.25;;;17.00;99.90;;;;;;4997576;28;20164;-70
2023/06/15 05:37:11;;;;;;;7.00;2.75;;;17.00;99.90;;;;;;4986663;28;20050;-70
2023/06/15 05:39:37;;;;;;;7.55;3.35;;;17.10;99.90;;;;;;5010700;28;20042;-70
2023/06/15 05:42:03;;;;;;;7.07;2.92;;;17.10;99.90;;;;;;5010802;28;20547;-70
2023/06/15 05:44:28;;;;;;;6.50;2.88;;;17.20;99.90;;;;;;4995500;28;20125;-70
2023/06/15 05:46:56;;;;;;;5.57;2.75;;;17.30;99.90;;;;;;4991697;28;20547;-70
2023/06/15 05:49:22;;;;;;;6.30;2.80;;;17.30;99.90;;;;;;4996740;28;20057;-70
2023/06/15 05:51:48;;;;;;;6.25;2.90;;;17.40;99.90;;;;;;5001539;28;20038;-70
2023/06/15 05:54:13;;;;;;;5.47;3.33;;;17.50;99.90;;;;;;5011183;28;20439;-70
2023/06/15 05:56:39;;;;;;;3.95;2.58;;;17.50;99.90;;;;;;5002500;28;20038;-70
2023/06/15 05:59:05;;;;;;;9.35;3.38;;;17.60;99.90;;;;;;4997493;28;20072;-70
2023/06/15 06:01:30;;;;;;;6.85;2.75;;;17.70;99.90;;;;;;4998457;28;20042;-70
2023/06/15 06:03:56;;;;;;;4.35;2.90;;;17.70;99.90;;;;;;4994437;28;20046;-70
2023/06/15 06:06:21;;;;;;;3.85;2.17;;;17.80;99.90;;;;;;4993520;28;20458;-70
2023/06/15 06:08:47;;;;;;;5.95;3.30;;;17.80;99.90;;;;;;4998715;28;20132;-70
2023/06/15 06:11:13;;;;;;;6.07;2.90;;;17.90;99.90;;;;;;4999327;28;20038;-70
2023/06/15 06:13:39;;;;;;;6.82;3.05;;;18.00;99.90;;;;;;4996769;28;20053;-70
2023/06/15 06:16:04;;;;;;;8.23;3.03;;;18.00;99.90;;;;;;5011977;28;20038;-70
2023/06/15 06:18:30;;;;;;;5.60;2.63;;;18.10;99.90;;;;;;5008769;28;20049;-70
2023/06/15 06:20:58;;;;;;;6.15;2.72;;;18.10;99.90;;;;;;4974699;28;20483;-70
2023/06/15 06:23:24;;;;;;;6.22;2.40;;;18.20;99.90;;;;;;5006295;28;20037;-70
2023/06/15 06:25:50;;;;;;;6.38;2.88;;;18.30;99.90;;;;;;4996282;28;20048;-70
2023/06/15 06:28:15;;;;;;;6.43;3.00;;;18.30;99.90;;;;;;4976366;28;21595;-70
2023/06/15 06:30:41;;;;;;;4.45;2.60;;;18.40;99.90;;;;;;4993547;28;20081;-70
2023/06/15 06:33:07;;;;;;;7.45;2.58;;;18.50;99.90;;;;;;4977981;28;20077;-70
2023/06/15 06:35:32;;;;;;;5.03;2.58;;;18.50;99.90;;;;;;4986038;28;20491;-70
2023/06/15 06:37:58;;;;;;;8.25;2.30;;;18.60;99.90;;;;;;5020148;22;20092;-72
2023/06/15 06:40:25;;;;;;;10.60;2.42;;;18.60;99.90;;;;;;5005663;28;20107;-72
2023/06/15 06:42:51;;;;;;;6.93;2.20;;;18.70;99.90;;;;;;5017929;28;20120;-72
2023/06/15 06:45:17;;;;;;;4.22;2.20;;;18.70;99.90;;;;;;5002358;28;20129;-79
2023/06/15 06:47:42;;;;;;;6.25;2.53;;;18.80;99.90;;;;;;5005685;28;20130;-72
2023/06/15 06:50:08;;;;;;;5.38;2.10;;;18.90;99.90;;;;;;5004170;28;20177;-72
2023/06/15 06:52:34;;;;;;;4.20;2.20;;;19.00;99.90;;;;;;5005881;28;20053;-72
2023/06/15 06:55:00;;;;;;;7.50;2.03;;;19.00;99.90;;;;;;5005169;28;20053;-73
2023/06/15 06:57:25;;;;;;;3.65;2.00;;;19.10;99.90;;;;;;5008435;28;20104;-72
2023/06/15 06:59:51;;;;;;;4.18;2.28;;;19.20;99.90;;;;;;5005616;28;20132;-72
2023/06/15 07:02:16;;;;;;;6.65;2.50;;;19.20;99.90;;;;;;5002285;28;20057;-75
2023/06/15 07:04:42;;;;;;;4.07;2.15;;;19.30;99.90;;;;;;5005719;28;20049;-71
2023/06/15 07:07:08;;;;;;;3.33;1.98;;;19.40;99.90;;;;;;5004565;28;20046;-72
2023/06/15 07:09:34;;;;;;;6.78;2.20;;;19.50;99.90;;;;;;5011806;28;20129;-72
2023/06/15 07:12:00;;;;;;;2.97;2.05;;;19.50;99.90;;;;;;5004851;28;20053;-75
2023/06/15 07:14:26;;;;;;;7.82;2.78;;;19.60;99.90;;;;;;5002464;28;20507;-76
2023/06/15 07:16:52;;;;;;;;;;;19.70;99.90;;;;;;4995071;28;20043;-73
2023/06/15 07:19:17;;;;;;;5.72;2.10;;;19.70;99.90;;;;;;4996430;28;20401;-78
2023/06/15 07:21:43;;;;;;;6.00;2.38;;;19.80;99.90;;;;;;5010538;28;20038;-73
2023/06/15 07:24:09;;;;;;;7.40;2.05;;;19.90;99.90;;;;;;4995785;28;20053;-71
2023/06/15 07:26:34;;;;;;;2.63;1.50;;;19.90;99.90;;;;;;5002400;28;20057;-74
2023/06/15 07:29:00;;;;;;;4.03;2.15;;;20.00;99.90;;;;;;5010439;28;20052;-71
2023/06/15 07:31:26;;;;;;;5.40;2.17;;;20.10;99.90;;;;;;4993366;28;20356;-70
2023/06/15 07:33:53;;;;;;;4.40;1.70;;;20.10;99.90;;;;;;4996459;28;20045;-72
2023/06/15 07:36:19;;;;;;;3.50;1.75;;;20.20;99.90;;;;;;4986746;28;20042;-70
2023/06/15 07:38:45;;;;;;;;;;;20.30;99.90;;;;;;5007233;28;20131;-71
2023/06/15 07:41:11;;;;;;;3.92;2.25;;;20.30;99.90;;;;;;4999137;28;19972;-70
2023/06/15 07:43:36;;;;;;;4.68;1.95;;;20.40;99.90;;;;;;5002911;28;20403;-73
2023/06/15 07:46:02;;;;;;;5.95;1.98;;;20.40;99.90;;;;;;4995305;28;20049;-74
2023/06/15 07:48:27;;;;;;;3.42;1.70;;;20.50;99.90;;;;;;4997549;28;20068;-72
2023/06/15 07:50:53;;;;;;;4.75;1.60;;;20.60;99.90;;;;;;5001140;28;20056;-72
2023/06/15 07:53:19;;;;;;;5.03;2.05;;;20.60;99.90;;;;;;5025555;28;20120;-75
2023/06/15 07:55:45;;;;;;;2.55;1.77;;;20.70;99.90;;;;;;5002359;28;20167;-78
2023/06/15 07:58:10;;;;;;;5.75;1.85;;;20.80;99.90;;;;;;5006321;28;20569;-76
2023/06/15 08:00:36;;;;;;;2.42;1.80;;;20.90;99.90;;;;;;5007673;28;20035;-75
2023/06/15 08:03:02;;;;;;;5.53;1.58;;;21.00;99.90;;;;;;4996400;28;20111;-74
2023/06/15 08:05:27;;;;;;;5.15;1.90;;;21.00;99.90;;;;;;5003149;28;20458;-75
2023/06/15 08:07:53;;;;;;;3.55;1.90;;;21.10;99.90;;;;;;4999168;28;20042;-76
2023/06/15 08:10:19;;;;;;;5.57;1.75;;;21.20;99.90;;;;;;5003993;28;20148;-74
2023/06/15 08:12:44;;;;;;;;;;;21.30;99.90;;;;;;5000031;28;20046;-76
2023/06/15 08:15:10;;;;;;;8.23;1.73;;;21.40;99.90;;;;;;5001896;28;19932;-74
2023/06/15 08:17:36;;;;;;;3.92;1.80;;;21.50;99.90;;;;;;5000050;28;20104;-76
2023/06/15 08:20:07;;;;;;;3.30;1.60;;;21.60;99.60;;;;;;5013291;28;20473;-74
2023/06/15 08:22:33;;;;;;;2.97;1.63;;;21.60;99.00;;;;;;5004505;28;20108;-72
2023/06/15 08:24:58;;;;;;;;;;;21.60;98.50;;;;;;5002425;28;20049;-72
2023/06/15 08:27:24;;;;;;;3.85;1.50;;;21.70;97.70;;;;;;5007895;28;20275;-72
2023/06/15 08:29:50;;;;;;;;;;;21.80;98.00;;;;;;5013567;28;20069;-71
2023/06/15 08:32:16;;;;;;;4.13;1.57;;;21.90;97.40;;;;;;5011865;28;20083;-72
2023/06/15 08:34:45;;;;;;;2.80;1.40;;;21.90;97.50;;;;;;5006819;28;20595;-72
2023/06/15 08:37:12;;;;;;;4.93;1.70;;;22.10;97.30;;;;;;5011129;28;20077;-71
2023/06/15 08:39:38;;;;;;;4.68;1.90;;;22.10;96.70;;;;;;4992565;28;20042;-72
2023/06/15 08:42:06;;;;;;;2.67;1.38;;;22.20;96.50;;;;;;5002772;28;20049;-76
2023/06/15 08:44:33;;;;;;;8.57;2.53;;;22.30;96.20;;;;;;5009270;28;20053;-73
2023/06/15 08:47:01;;;;;;;3.92;1.85;;;22.40;95.90;;;;;;5012563;28;20590;-73
2023/06/15 08:49:28;;;;;;;3.85;1.92;;;22.50;95.60;;;;;;4984299;28;20066;-72
2023/06/15 08:51:56;;;;;;;6.55;1.63;;;22.60;95.20;;;;;;5003045;28;20042;-72
2023/06/15 08:54:23;;;;;;;3.40;1.77;;;22.70;95.10;;;;;;4998551;28;20127;-72
2023/06/15 08:56:49;;;;;;;4.20;1.90;;;22.70;95.20;;;;;;5005654;28;20065;-74
2023/06/15 08:59:16;;;;;;;3.70;1.23;;;22.80;94.60;;;;;;5003453;28;20041;-73
2023/06/15 09:01:43;;;;;;;4.20;1.65;;;22.90;94.10;;;;;;4997384;28;20082;-70
2023/06/15 09:04:09;;;;;;;4.85;1.90;;;23.00;93.50;;;;;;4998229;28;20042;-71
2023/06/15 09:06:35;;;;;;;2.65;1.42;;;23.10;93.60;;;;;;4980926;28;20555;-71
2023/06/15 09:09:03;;;;;;;4.60;1.80;;;23.20;93.30;;;;;;5001578;28;20487;-76
2023/06/15 09:11:28;;;;;;;3.67;1.73;;;23.30;92.60;;;;;;5002418;28;20224;-73
2023/06/15 09:13:54;;;;;;;;;;;23.40;92.30;;;;;;4984509;28;20041;-72
2023/06/15 09:16:21;;;;;;;5.10;1.73;;;23.50;92.10;;;;;;5003924;28;19929;-74
2023/06/15 09:18:47;;;;;;;4.45;2.00;;;23.60;92.20;;;;;;5004209;28;20104;-71
2023/06/15 09:21:15;;;;;;;7.35;2.03;;;23.70;91.70;;;;;;4996448;28;20045;-71
2023/06/15 09:23:45;;;;;;;2.83;1.60;;;23.80;90.60;;;;;;5001504;28;20038;-70
2023/06/15 09:26:25;;;;;;;5.30;1.70;;;23.80;90.50;;;;;;5000372;28;20160;-70
2023/06/15 09:28:56;;;;;;;3.33;1.63;;;23.90;89.20;;;;;;4997714;28;20132;-70
2023/06/15 09:31:29;;;;;;;4.22;1.77;;;24.00;90.30;;;;;;5002708;28;20046;-70
2023/06/15 09:34:05;;;;;;;2.70;1.50;;;24.00;90.00;;;;;;4998995;28;20049;-69
2023/06/15 09:36:40;;;;;;;2.25;1.48;;;24.10;87.70;;;;;;5000348;28;20037;-70
2023/06/15 09:39:09;;;;;;;3.20;1.63;;;24.20;88.00;;;;;;5001591;28;20041;-71
2023/06/15 09:41:35;;;;;;;3.05;1.85;;;24.30;86.90;;;;;;5000664;28;20035;-70
2023/06/15 09:44:05;;;;;;;4.72;2.03;;;24.40;86.40;;;;;;4999543;28;20062;-70
2023/06/15 09:46:31;;;;;;;3.35;1.65;;;24.50;85.20;;;;;;4987562;28;20046;-70
2023/06/15 09:48:57;;;;;;;2.67;1.42;;;24.60;84.90;;;;;;4998029;28;20073;-70
2023/06/15 09:51:30;;;;;;;3.42;1.83;;;24.60;84.00;;;;;;5002314;28;20299;-71
2023/06/15 09:53:57;;;;;;;4.30;1.98;;;24.70;82.80;;;;;;5001207;28;20121;-71
2023/06/15 09:56:23;;;;;;;2.97;1.77;;;24.80;82.90;;;;;;5002546;28;20120;-71
2023/06/15 09:58:48;;;;;;;4.00;1.45;;;24.90;81.90;;;;;;5006010;28;20037;-74
2023/06/15 10:01:15;;;;;;;;;;;25.00;80.30;;;;;;5005626;28;20575;-71
2023/06/15 10:03:43;;;;;;;4.25;1.60;;;25.00;81.10;;;;;;5000841;28;20158;-71
2023/06/15 10:06:13;;;;;;;3.55;1.65;;;25.10;80.30;;;;;;4997690;28;20060;-71
2023/06/15 10:08:41;;;;;;;6.78;2.30;;;25.10;80.40;;;;;;5002074;28;20218;-71
2023/06/15 10:11:09;;;;;;;2.83;1.40;;;25.20;78.40;;;;;;4998612;28;20420;-71
2023/06/15 10:13:56;;;;;;;4.82;1.85;;;25.20;78.50;;;;;;5000755;28;20522;-71
2023/06/15 10:16:22;;;;;;;4.43;1.52;;;25.30;78.00;;;;;;5002489;28;20105;-72
2023/06/15 10:18:57;;;;;;;3.78;1.67;;;25.40;76.20;;;;;;5001469;28;20089;-71
2023/06/15 10:21:27;;;;;;;3.00;1.52;;;25.30;75.00;;;;;;5003159;28;20311;-71
2023/06/15 10:24:02;;;;;;;2.50;1.30;;;25.40;74.90;;;;;;5001633;28;20077;-72
2023/06/15 10:26:28;;;;;;;5.20;1.90;;;25.40;76.10;;;;;;5004684;28;20113;-71
2023/06/15 10:29:02;;;;;;;3.63;1.38;;;25.50;75.60;;;;;;5008090;28;20568;-72
2023/06/15 10:31:39;;;;;;;2.97;1.52;;;25.50;72.80;;;;;;5003624;28;20113;-73
2023/06/15 10:34:24;;;;;;;4.53;1.48;;;25.50;72.30;;;;;;5007568;28;20037;-72
2023/06/15 10:36:56;;;;;;;2.70;1.50;;;25.50;72.10;;;;;;4985734;28;20122;-72
2023/06/15 10:39:29;;;;;;;4.35;1.42;;;25.60;72.20;;;;;;5002828;28;20037;-72
2023/06/15 10:41:58;;;;;;;5.10;1.70;;;25.70;74.40;;;;;;4994417;28;20775;-72
2023/06/15 10:44:31;;;;;;;2.50;1.40;;;25.80;72.80;;;;;;5004708;28;20049;-72
2023/06/15 10:47:11;;;;;;;3.78;1.67;;;25.90;71.90;;;;;;5004860;28;20117;-72
2023/06/15 10:49:47;;;;;;;3.97;1.50;;;25.90;70.20;;;;;;5004677;28;20046;-72
2023/06/15 10:52:13;;;;;;;4.13;1.90;;;25.90;69.30;;;;;;4996979;28;20509;-72
2023/06/15 10:54:39;;;;;;;5.07;2.00;;;25.90;71.00;;;;;;5000094;28;20050;-72
2023/06/15 10:57:07;;;;;;;4.18;1.60;;;26.00;69.90;;;;;;5001593;28;20048;-72
2023/06/15 11:00:08;;;;;;;3.70;1.88;;;26.00;68.50;;;;;;5001349;28;20042;-72
2023/06/15 11:02:34;;;;;;;3.20;1.73;;;26.10;66.40;;;;;;4983180;28;20053;-72
2023/06/15 11:05:10;;;;;;;5.22;1.50;;;26.10;67.00;;;;;;5004858;28;20050;-73
2023/06/15 11:07:36;;;;;;;;;;;26.20;67.90;;;;;;4995407;28;20121;-72
2023/06/15 11:10:09;;;;;;;2.53;1.37;;;26.30;69.30;;;;;;5004473;28;20019;-72
2023/06/15 11:12:36;;;;;;;4.20;1.58;;;26.40;66.80;;;;;;4996152;28;20046;-72
2023/06/15 11:15:03;;;;;;;5.50;1.25;;;26.40;66.90;;;;;;4998503;28;20053;-73
2023/06/15 11:17:30;;;;;;;6.50;1.90;;;26.50;67.40;;;;;;4999100;28;20056;-72
2023/06/15 11:19:57;;;;;;;3.60;1.50;;;26.70;66.60;;;;;;5007450;28;20581;-73
2023/06/15 11:22:25;;;;;;;6.45;2.90;;;26.80;67.10;;;;;;5000670;28;20131;-72
2023/06/15 11:24:54;;;;;;;4.85;1.92;;;27.00;66.60;;;;;;4998469;28;20124;-73
2023/06/15 11:27:22;;;;;;;6.15;1.85;;;27.00;65.60;;;;;;5001806;28;20042;-72
2023/06/15 11:29:55;;;;;;;5.47;2.15;;;27.00;65.10;;;;;;5003556;28;20045;-72
2023/06/15 11:32:26;;;;;;;2.70;1.65;;;27.00;64.10;;;;;;4999819;28;20475;-72
2023/06/15 11:34:56;;;;;;;2.78;1.48;;;27.00;63.50;;;;;;4983021;28;20128;-73
2023/06/15 11:37:26;;;;;;;3.85;1.88;;;27.00;63.70;;;;;;5001594;28;20076;-72
2023/06/15 11:39:51;;;;;;;3.88;1.60;;;27.10;63.60;;;;;;5007164;28;20053;-72
2023/06/15 11:42:20;;;;;;;10.93;4.78;;;27.20;64.20;;;;;;5001180;28;20030;-72
2023/06/15 11:44:49;;;;;;;3.33;1.60;;;27.40;63.70;;;;;;5001734;28;20041;-72
2023/06/15 11:47:16;;;;;;;3.10;1.73;;;27.50;62.40;;;;;;4986844;28;20128;-72
2023/06/15 11:49:44;;;;;;;2.40;1.70;;;27.50;61.00;;;;;;5004794;28;20056;-72
2023/06/15 11:52:10;;;;;;;3.30;1.60;;;27.40;62.40;;;;;;5006417;28;20443;-73
2023/06/15 11:54:36;;;;;;;2.65;1.70;;;27.50;61.30;;;;;;5000534;28;20041;-73
2023/06/15 11:57:02;;;;;;;4.47;1.88;;;27.50;60.50;;;;;;4981904;28;20042;-73
2023/06/15 11:59:27;;;;;;;5.00;1.70;;;27.50;61.20;;;;;;5004259;28;20270;-72
2023/06/15 12:01:57;;;;;;;3.75;1.52;;;27.70;61.10;;;;;;4988505;28;20037;-72
2023/06/15 12:04:25;;;;;;;6.32;2.45;;;27.80;60.00;;;;;;5006454;28;20365;-72
2023/06/15 12:06:51;;;;;;;2.42;1.70;;;27.90;60.50;;;;;;4997595;28;20124;-72
2023/06/15 12:09:19;;;;;;;3.05;1.45;;;28.00;60.40;;;;;;5003656;28;20049;-73
2023/06/15 12:11:45;;;;;;;3.00;1.60;;;28.20;60.40;;;;;;5005506;28;20041;-73
2023/06/15 12:14:12;;;;;;;3.22;1.20;;;28.30;60.60;;;;;;5002121;28;20039;-72
2023/06/15 12:16:39;;;;;;;2.47;1.30;;;28.40;59.00;;;;;;4997409;28;20038;-73
2023/06/15 12:19:08;;;;;;;2.58;1.35;;;28.40;58.20;;;;;;5003037;28;20145;-73
2023/06/15 12:21:39;;;;;;;3.03;1.45;;;28.50;57.40;;;;;;4998435;28;20088;-73
2023/06/15 12:24:15;;;;;;;4.70;1.63;;;28.50;57.50;;;;;;5001885;28;20051;-72
2023/06/15 12:26:47;;;;;;;2.72;1.33;;;28.70;58.40;;;;;;5000031;28;20547;-73
2023/06/15 12:29:14;;;;;;;3.13;1.70;;;28.70;57.00;;;;;;5002337;28;20061;-72
2023/06/15 12:31:41;;;;;;;4.25;1.65;;;28.70;56.30;;;;;;5004415;28;20081;-72
2023/06/15 12:34:10;;;;;;;4.25;1.60;;;28.60;56.30;;;;;;5003489;28;20053;-72
2023/06/15 12:36:40;;;;;;;3.58;1.80;;;28.60;56.20;;;;;;5002579;28;20486;-72
2023/06/15 12:39:10;;;;;;;5.18;1.70;;;28.60;56.50;;;;;;4988907;28;20050;-73
2023/06/15 12:41:41;;;;;;;3.88;1.80;;;28.70;56.90;;;;;;5001302;28;20117;-73
2023/06/15 12:44:07;;;;;;;3.65;1.75;;;28.80;57.10;;;;;;4997562;28;20200;-73
2023/06/15 12:46:38;;;;;;;1.92;1.30;;;29.00;57.10;;;;;;4995509;28;20210;-72
2023/06/15 12:49:04;;;;;;;3.65;1.95;;;29.00;56.00;;;;;;5001617;28;20050;-73
2023/06/15 12:51:30;;;;;;;3.00;1.50;;;28.90;55.90;;;;;;4999863;28;20502;-73